sensor_id;sensor_type;location;lat;lon;timestamp;temperature;humidity
81218;DHT22;70689;52.494;13.420;2023-10-13T00:01:24;15.90;71.80
81218;DHT22;70689;52.494;13.420;2023-10-13T00:03:50;15.90;72.00
81218;DHT22;70689;52.494;13.420;2023-10-13T00:06:19;15.80;72.10
81218;DHT22;70689;52.494;13.420;2023-10-13T00:08:45;15.80;72.30
81218;DHT22;70689;52.494;13.420;2023-10-13T00:11:15;15.80;71.70
81218;DHT22;70689;52.494;13.420;2023-10-13T00:13:42;15.80;72.20
81218;DHT22;70689;52.494;13.420;2023-10-13T00:16:09;15.80;72.00
81218;DHT22;70689;52.494;13.420;2023-10-13T00:18:43;15.70;72.30
81218;DHT22;70689;52.494;13.420;2023-10-13T00:21:10;15.80;71.90
81218;DHT22;70689;52.494;13.420;2023-10-13T00:23:43;15.70;72.40
81218;DHT22;70689;52.494;13.420;2023-10-13T00:26:20;15.80;72.50
81218;DHT22;70689;52.494;13.420;2023-10-13T00:28:50;15.70;72.80
81218;DHT22;70689;52.494;13.420;2023-10-13T00:31:25;15.60;73.30
81218;DHT22;70689;52.494;13.420;2023-10-13T00:33:54;15.70;73.80
81218;DHT22;70689;52.494;13.420;2023-10-13T00:36:26;15.70;73.40
81218;DHT22;70689;52.494;13.420;2023-10-13T00:38:52;16.00;72.50
81218;DHT22;70689;52.494;13.420;2023-10-13T00:41:18;16.00;71.90
81218;DHT22;70689;52.494;13.420;2023-10-13T00:43:58;15.90;72.20
81218;DHT22;70689;52.494;13.420;2023-10-13T00:46:34;16.00;71.90
81218;DHT22;70689;52.494;13.420;2023-10-13T00:49:02;15.90;71.80
81218;DHT22;70689;52.494;13.420;2023-10-13T00:51:30;15.80;72.30
81218;DHT22;70689;52.494;13.420;2023-10-13T00:54:05;15.80;72.10
81218;DHT22;70689;52.494;13.420;2023-10-13T00:56:41;15.90;72.30
81218;DHT22;70689;52.494;13.420;2023-10-13T00:59:27;15.90;72.70
81218;DHT22;70689;52.494;13.420;2023-10-13T01:01:53;15.90;72.10
81218;DHT22;70689;52.494;13.420;2023-10-13T01:04:21;16.10;71.30
81218;DHT22;70689;52.494;13.420;2023-10-13T01:06:48;15.90;71.50
81218;DHT22;70689;52.494;13.420;2023-10-13T01:09:14;15.90;72.00
81218;DHT22;70689;52.494;13.420;2023-10-13T01:11:50;15.80;72.80
81218;DHT22;70689;52.494;13.420;2023-10-13T01:14:19;15.70;73.40
81218;DHT22;70689;52.494;13.420;2023-10-13T01:16:47;15.80;73.30
81218;DHT22;70689;52.494;13.420;2023-10-13T01:19:17;15.70;73.20
81218;DHT22;70689;52.494;13.420;2023-10-13T01:21:45;15.70;73.90
81218;DHT22;70689;52.494;13.420;2023-10-13T01:24:11;15.80;72.60
81218;DHT22;70689;52.494;13.420;2023-10-13T01:26:38;15.80;72.70
81218;DHT22;70689;52.494;13.420;2023-10-13T01:29:06;15.90;72.30
81218;DHT22;70689;52.494;13.420;2023-10-13T01:31:42;15.90;72.10
81218;DHT22;70689;52.494;13.420;2023-10-13T01:34:18;15.80;72.80
81218;DHT22;70689;52.494;13.420;2023-10-13T01:36:53;15.90;72.60
81218;DHT22;70689;52.494;13.420;2023-10-13T01:39:20;16.00;71.70
81218;DHT22;70689;52.494;13.420;2023-10-13T01:41:47;15.80;72.20
81218;DHT22;70689;52.494;13.420;2023-10-13T01:44:21;15.90;72.40
81218;DHT22;70689;52.494;13.420;2023-10-13T01:46:46;15.80;72.20
81218;DHT22;70689;52.494;13.420;2023-10-13T01:49:13;15.70;72.80
81218;DHT22;70689;52.494;13.420;2023-10-13T01:51:41;15.70;73.00
81218;DHT22;70689;52.494;13.420;2023-10-13T01:54:08;15.70;73.40
81218;DHT22;70689;52.494;13.420;2023-10-13T01:56:38;15.60;73.70
81218;DHT22;70689;52.494;13.420;2023-10-13T01:59:08;15.50;74.30
81218;DHT22;70689;52.494;13.420;2023-10-13T02:01:37;15.70;74.10
81218;DHT22;70689;52.494;13.420;2023-10-13T02:04:03;15.60;73.60
81218;DHT22;70689;52.494;13.420;2023-10-13T02:06:34;15.60;73.90
81218;DHT22;70689;52.494;13.420;2023-10-13T02:09:08;15.60;74.20
81218;DHT22;70689;52.494;13.420;2023-10-13T02:11:44;15.50;74.60
81218;DHT22;70689;52.494;13.420;2023-10-13T02:14:13;15.60;75.90
81218;DHT22;70689;52.494;13.420;2023-10-13T02:16:42;15.50;74.60
81218;DHT22;70689;52.494;13.420;2023-10-13T02:19:08;15.80;73.60
81218;DHT22;70689;52.494;13.420;2023-10-13T02:21:35;15.70;74.20
81218;DHT22;70689;52.494;13.420;2023-10-13T02:24:10;15.60;74.30
81218;DHT22;70689;52.494;13.420;2023-10-13T02:26:44;15.60;75.10
81218;DHT22;70689;52.494;13.420;2023-10-13T02:29:09;15.70;75.00
81218;DHT22;70689;52.494;13.420;2023-10-13T02:31:42;15.70;74.60
81218;DHT22;70689;52.494;13.420;2023-10-13T02:34:08;15.80;74.20
81218;DHT22;70689;52.494;13.420;2023-10-13T02:36:37;15.80;74.20
81218;DHT22;70689;52.494;13.420;2023-10-13T02:39:14;15.90;73.60
81218;DHT22;70689;52.494;13.420;2023-10-13T02:41:41;15.80;73.70
81218;DHT22;70689;52.494;13.420;2023-10-13T02:44:13;15.80;74.60
81218;DHT22;70689;52.494;13.420;2023-10-13T02:46:46;15.80;74.20
81218;DHT22;70689;52.494;13.420;2023-10-13T02:49:16;15.80;74.40
81218;DHT22;70689;52.494;13.420;2023-10-13T02:51:45;15.80;74.40
81218;DHT22;70689;52.494;13.420;2023-10-13T02:54:11;15.80;74.10
81218;DHT22;70689;52.494;13.420;2023-10-13T02:56:44;15.80;74.80
81218;DHT22;70689;52.494;13.420;2023-10-13T02:59:25;15.70;75.10
81218;DHT22;70689;52.494;13.420;2023-10-13T03:02:04;15.80;74.50
81218;DHT22;70689;52.494;13.420;2023-10-13T03:04:44;15.70;75.00
81218;DHT22;70689;52.494;13.420;2023-10-13T03:07:10;15.70;75.40
81218;DHT22;70689;52.494;13.420;2023-10-13T03:09:36;15.70;75.20
81218;DHT22;70689;52.494;13.420;2023-10-13T03:12:03;15.70;75.40
81218;DHT22;70689;52.494;13.420;2023-10-13T03:14:29;15.70;76.00
81218;DHT22;70689;52.494;13.420;2023-10-13T03:17:02;15.70;75.30
81218;DHT22;70689;52.494;13.420;2023-10-13T03:19:30;15.80;74.70
81218;DHT22;70689;52.494;13.420;2023-10-13T03:21:59;15.90;74.50
81218;DHT22;70689;52.494;13.420;2023-10-13T03:24:34;16.00;74.10
81218;DHT22;70689;52.494;13.420;2023-10-13T03:27:03;15.90;74.70
81218;DHT22;70689;52.494;13.420;2023-10-13T03:29:39;16.00;74.60
81218;DHT22;70689;52.494;13.420;2023-10-13T03:32:11;15.90;74.40
81218;DHT22;70689;52.494;13.420;2023-10-13T03:34:41;15.80;75.40
81218;DHT22;70689;52.494;13.420;2023-10-13T03:37:15;15.90;75.00
81218;DHT22;70689;52.494;13.420;2023-10-13T03:39:45;16.00;74.40
81218;DHT22;70689;52.494;13.420;2023-10-13T03:42:11;15.90;75.20
81218;DHT22;70689;52.494;13.420;2023-10-13T03:44:47;15.90;75.30
81218;DHT22;70689;52.494;13.420;2023-10-13T03:47:13;15.90;74.80
81218;DHT22;70689;52.494;13.420;2023-10-13T03:49:55;16.00;74.90
81218;DHT22;70689;52.494;13.420;2023-10-13T03:52:40;15.90;75.10
81218;DHT22;70689;52.494;13.420;2023-10-13T03:55:06;15.90;75.40
81218;DHT22;70689;52.494;13.420;2023-10-13T03:57:32;15.90;75.30
81218;DHT22;70689;52.494;13.420;2023-10-13T04:00:04;16.00;75.30
81218;DHT22;70689;52.494;13.420;2023-10-13T04:02:34;16.00;75.10
81218;DHT22;70689;52.494;13.420;2023-10-13T04:05:02;16.10;74.90
81218;DHT22;70689;52.494;13.420;2023-10-13T04:07:35;15.80;75.70
81218;DHT22;70689;52.494;13.420;2023-10-13T04:10:00;15.90;76.30
81218;DHT22;70689;52.494;13.420;2023-10-13T04:12:45;16.00;75.30
81218;DHT22;70689;52.494;13.420;2023-10-13T04:15:29;16.00;75.20
81218;DHT22;70689;52.494;13.420;2023-10-13T04:18:08;16.20;74.50
81218;DHT22;70689;52.494;13.420;2023-10-13T04:20:59;16.10;74.80
81218;DHT22;70689;52.494;13.420;2023-10-13T04:23:36;16.00;75.70
81218;DHT22;70689;52.494;13.420;2023-10-13T04:26:21;16.00;75.30
81218;DHT22;70689;52.494;13.420;2023-10-13T04:28:48;16.00;75.50
81218;DHT22;70689;52.494;13.420;2023-10-13T04:31:17;16.00;75.60
81218;DHT22;70689;52.494;13.420;2023-10-13T04:34:06;16.00;75.80
81218;DHT22;70689;52.494;13.420;2023-10-13T04:36:41;16.20;75.60
81218;DHT22;70689;52.494;13.420;2023-10-13T04:39:11;16.20;75.00
81218;DHT22;70689;52.494;13.420;2023-10-13T04:41:42;16.20;74.70
81218;DHT22;70689;52.494;13.420;2023-10-13T04:44:14;16.20;75.40
81218;DHT22;70689;52.494;13.420;2023-10-13T04:46:59;16.10;75.60
81218;DHT22;70689;52.494;13.420;2023-10-13T04:49:29;16.20;75.80
81218;DHT22;70689;52.494;13.420;2023-10-13T04:52:05;16.20;75.80
81218;DHT22;70689;52.494;13.420;2023-10-13T04:54:44;16.10;76.00
81218;DHT22;70689;52.494;13.420;2023-10-13T04:59:57;16.30;74.90
81218;DHT22;70689;52.494;13.420;2023-10-13T05:02:36;16.30;75.50
81218;DHT22;70689;52.494;13.420;2023-10-13T05:05:03;16.20;75.90
81218;DHT22;70689;52.494;13.420;2023-10-13T05:07:32;16.20;76.20
81218;DHT22;70689;52.494;13.420;2023-10-13T05:10:17;16.30;76.50
81218;DHT22;70689;52.494;13.420;2023-10-13T05:13:02;16.20;75.90
81218;DHT22;70689;52.494;13.420;2023-10-13T05:15:50;16.20;76.10
81218;DHT22;70689;52.494;13.420;2023-10-13T05:18:34;16.30;75.80
81218;DHT22;70689;52.494;13.420;2023-10-13T05:21:19;16.30;75.90
81218;DHT22;70689;52.494;13.420;2023-10-13T05:24:03;16.20;75.90
81218;DHT22;70689;52.494;13.420;2023-10-13T05:26:48;16.20;76.10
81218;DHT22;70689;52.494;13.420;2023-10-13T05:29:32;16.30;77.20
81218;DHT22;70689;52.494;13.420;2023-10-13T05:32:16;16.30;76.00
81218;DHT22;70689;52.494;13.420;2023-10-13T05:35:00;16.40;75.40
81218;DHT22;70689;52.494;13.420;2023-10-13T05:37:44;16.40;75.50
81218;DHT22;70689;52.494;13.420;2023-10-13T05:40:29;16.40;75.60
81218;DHT22;70689;52.494;13.420;2023-10-13T05:43:13;16.50;75.50
81218;DHT22;70689;52.494;13.420;2023-10-13T05:46:02;16.50;75.60
81218;DHT22;70689;52.494;13.420;2023-10-13T05:48:57;16.50;75.40
81218;DHT22;70689;52.494;13.420;2023-10-13T05:51:26;16.40;76.10
81218;DHT22;70689;52.494;13.420;2023-10-13T05:54:04;16.50;75.90
81218;DHT22;70689;52.494;13.420;2023-10-13T05:56:39;16.40;76.30
81218;DHT22;70689;52.494;13.420;2023-10-13T05:59:28;16.50;76.90
81218;DHT22;70689;52.494;13.420;2023-10-13T06:02:14;16.60;75.80
81218;DHT22;70689;52.494;13.420;2023-10-13T06:05:01;16.50;75.80
81218;DHT22;70689;52.494;13.420;2023-10-13T06:07:45;16.60;75.50
81218;DHT22;70689;52.494;13.420;2023-10-13T06:10:30;16.60;75.90
81218;DHT22;70689;52.494;13.420;2023-10-13T06:13:14;16.50;76.40
81218;DHT22;70689;52.494;13.420;2023-10-13T06:15:58;16.50;76.90
81218;DHT22;70689;52.494;13.420;2023-10-13T06:18:42;16.40;77.30
81218;DHT22;70689;52.494;13.420;2023-10-13T06:21:27;16.30;77.80
81218;DHT22;70689;52.494;13.420;2023-10-13T06:24:18;16.40;78.10
81218;DHT22;70689;52.494;13.420;2023-10-13T06:27:03;16.50;78.20
81218;DHT22;70689;52.494;13.420;2023-10-13T06:29:47;16.70;77.70
81218;DHT22;70689;52.494;13.420;2023-10-13T06:32:14;16.90;76.50
81218;DHT22;70689;52.494;13.420;2023-10-13T06:34:42;17.00;75.40
81218;DHT22;70689;52.494;13.420;2023-10-13T06:37:11;16.90;75.90
81218;DHT22;70689;52.494;13.420;2023-10-13T06:39:50;16.70;76.50
81218;DHT22;70689;52.494;13.420;2023-10-13T06:42:16;16.70;76.90
81218;DHT22;70689;52.494;13.420;2023-10-13T06:44:44;16.70;77.40
81218;DHT22;70689;52.494;13.420;2023-10-13T06:47:13;16.60;77.70
81218;DHT22;70689;52.494;13.420;2023-10-13T06:49:42;16.60;78.00
81218;DHT22;70689;52.494;13.420;2023-10-13T06:52:11;16.70;77.80
81218;DHT22;70689;52.494;13.420;2023-10-13T06:54:37;16.60;78.00
81218;DHT22;70689;52.494;13.420;2023-10-13T06:57:19;16.70;78.10
81218;DHT22;70689;52.494;13.420;2023-10-13T06:59:47;16.70;77.90
81218;DHT22;70689;52.494;13.420;2023-10-13T07:02:16;16.70;78.10
81218;DHT22;70689;52.494;13.420;2023-10-13T07:04:48;16.80;78.20
81218;DHT22;70689;52.494;13.420;2023-10-13T07:07:16;17.00;77.70
81218;DHT22;70689;52.494;13.420;2023-10-13T07:09:42;17.10;76.70
81218;DHT22;70689;52.494;13.420;2023-10-13T07:12:24;17.20;76.60
81218;DHT22;70689;52.494;13.420;2023-10-13T07:14:53;17.40;76.20
81218;DHT22;70689;52.494;13.420;2023-10-13T07:17:37;17.50;75.90
81218;DHT22;70689;52.494;13.420;2023-10-13T07:20:07;17.60;75.40
81218;DHT22;70689;52.494;13.420;2023-10-13T07:22:50;17.60;75.40
81218;DHT22;70689;52.494;13.420;2023-10-13T07:25:35;17.60;75.20
81218;DHT22;70689;52.494;13.420;2023-10-13T07:28:05;17.60;75.40
81218;DHT22;70689;52.494;13.420;2023-10-13T07:30:35;17.60;75.20
81218;DHT22;70689;52.494;13.420;2023-10-13T07:33:17;17.70;75.10
81218;DHT22;70689;52.494;13.420;2023-10-13T07:35:46;17.70;75.10
81218;DHT22;70689;52.494;13.420;2023-10-13T07:38:17;17.80;74.80
81218;DHT22;70689;52.494;13.420;2023-10-13T07:40:46;17.70;74.60
81218;DHT22;70689;52.494;13.420;2023-10-13T07:43:18;17.70;75.00
81218;DHT22;70689;52.494;13.420;2023-10-13T07:45:47;17.60;75.20
81218;DHT22;70689;52.494;13.420;2023-10-13T07:48:19;17.60;75.50
81218;DHT22;70689;52.494;13.420;2023-10-13T07:50:45;17.80;74.90
81218;DHT22;70689;52.494;13.420;2023-10-13T07:53:11;17.90;74.50
81218;DHT22;70689;52.494;13.420;2023-10-13T07:55:49;17.90;74.30
81218;DHT22;70689;52.494;13.420;2023-10-13T07:58:21;18.10;74.20
81218;DHT22;70689;52.494;13.420;2023-10-13T08:00:51;18.10;73.80
81218;DHT22;70689;52.494;13.420;2023-10-13T08:03:35;18.00;74.20
81218;DHT22;70689;52.494;13.420;2023-10-13T08:06:08;17.80;74.70
81218;DHT22;70689;52.494;13.420;2023-10-13T08:08:38;17.90;74.30
81218;DHT22;70689;52.494;13.420;2023-10-13T08:11:12;17.90;74.50
81218;DHT22;70689;52.494;13.420;2023-10-13T08:13:54;18.00;74.40
81218;DHT22;70689;52.494;13.420;2023-10-13T08:16:25;18.10;74.20
81218;DHT22;70689;52.494;13.420;2023-10-13T08:19:09;18.20;73.80
81218;DHT22;70689;52.494;13.420;2023-10-13T08:21:36;18.30;73.40
81218;DHT22;70689;52.494;13.420;2023-10-13T08:24:03;18.30;74.10
81218;DHT22;70689;52.494;13.420;2023-10-13T08:26:32;18.20;73.60
81218;DHT22;70689;52.494;13.420;2023-10-13T08:29:02;18.20;73.20
81218;DHT22;70689;52.494;13.420;2023-10-13T08:31:56;18.30;73.60
81218;DHT22;70689;52.494;13.420;2023-10-13T08:34:40;18.40;73.10
81218;DHT22;70689;52.494;13.420;2023-10-13T08:37:09;18.70;72.20
81218;DHT22;70689;52.494;13.420;2023-10-13T08:39:57;18.70;72.00
81218;DHT22;70689;52.494;13.420;2023-10-13T08:45:18;18.60;71.90
81218;DHT22;70689;52.494;13.420;2023-10-13T08:47:55;18.60;72.20
81218;DHT22;70689;52.494;13.420;2023-10-13T08:53:27;18.60;72.10
81218;DHT22;70689;52.494;13.420;2023-10-13T08:58:46;18.50;73.00
81218;DHT22;70689;52.494;13.420;2023-10-13T09:04:18;18.60;72.70
81218;DHT22;70689;52.494;13.420;2023-10-13T09:06:54;18.60;72.90
81218;DHT22;70689;52.494;13.420;2023-10-13T09:12:41;18.80;72.10
81218;DHT22;70689;52.494;13.420;2023-10-13T09:15:29;19.00;71.00
81218;DHT22;70689;52.494;13.420;2023-10-13T09:18:25;19.00;70.70
81218;DHT22;70689;52.494;13.420;2023-10-13T09:21:10;19.10;70.20
81218;DHT22;70689;52.494;13.420;2023-10-13T09:23:58;19.00;71.00
81218;DHT22;70689;52.494;13.420;2023-10-13T09:26:42;19.00;70.90
81218;DHT22;70689;52.494;13.420;2023-10-13T09:29:15;19.00;70.60
81218;DHT22;70689;52.494;13.420;2023-10-13T09:31:46;18.90;71.30
81218;DHT22;70689;52.494;13.420;2023-10-13T09:34:21;18.80;71.80
81218;DHT22;70689;52.494;13.420;2023-10-13T09:36:49;18.60;73.20
81218;DHT22;70689;52.494;13.420;2023-10-13T09:39:26;18.60;73.40
81218;DHT22;70689;52.494;13.420;2023-10-13T09:41:56;18.60;73.90
81218;DHT22;70689;52.494;13.420;2023-10-13T09:44:27;18.60;73.60
81218;DHT22;70689;52.494;13.420;2023-10-13T09:47:02;18.70;73.40
81218;DHT22;70689;52.494;13.420;2023-10-13T09:49:39;18.60;73.50
81218;DHT22;70689;52.494;13.420;2023-10-13T09:52:15;18.70;74.50
81218;DHT22;70689;52.494;13.420;2023-10-13T09:54:51;18.70;74.00
81218;DHT22;70689;52.494;13.420;2023-10-13T09:57:28;18.60;74.20
81218;DHT22;70689;52.494;13.420;2023-10-13T10:00:12;18.80;74.00
81218;DHT22;70689;52.494;13.420;2023-10-13T10:02:55;18.90;73.80
81218;DHT22;70689;52.494;13.420;2023-10-13T10:05:25;18.90;73.50
81218;DHT22;70689;52.494;13.420;2023-10-13T10:07:55;18.90;73.30
81218;DHT22;70689;52.494;13.420;2023-10-13T10:10:32;19.00;73.40
81218;DHT22;70689;52.494;13.420;2023-10-13T10:13:19;19.10;72.80
81218;DHT22;70689;52.494;13.420;2023-10-13T10:15:49;19.10;72.90
81218;DHT22;70689;52.494;13.420;2023-10-13T10:18:21;19.10;72.80
81218;DHT22;70689;52.494;13.420;2023-10-13T10:20:48;19.20;73.00
81218;DHT22;70689;52.494;13.420;2023-10-13T10:23:29;19.20;72.60
81218;DHT22;70689;52.494;13.420;2023-10-13T10:26:09;19.30;72.40
81218;DHT22;70689;52.494;13.420;2023-10-13T10:28:40;19.30;71.80
81218;DHT22;70689;52.494;13.420;2023-10-13T10:31:07;19.30;72.00
81218;DHT22;70689;52.494;13.420;2023-10-13T10:33:38;19.20;72.40
81218;DHT22;70689;52.494;13.420;2023-10-13T10:36:05;19.30;72.90
81218;DHT22;70689;52.494;13.420;2023-10-13T10:38:31;19.30;72.60
81218;DHT22;70689;52.494;13.420;2023-10-13T10:41:04;19.20;72.80
81218;DHT22;70689;52.494;13.420;2023-10-13T10:46:14;19.00;74.00
81218;DHT22;70689;52.494;13.420;2023-10-13T10:48:41;19.10;73.90
81218;DHT22;70689;52.494;13.420;2023-10-13T10:51:11;19.10;74.20
81218;DHT22;70689;52.494;13.420;2023-10-13T10:53:40;19.10;74.70
81218;DHT22;70689;52.494;13.420;2023-10-13T10:56:10;19.10;75.10
81218;DHT22;70689;52.494;13.420;2023-10-13T10:58:46;19.00;75.60
81218;DHT22;70689;52.494;13.420;2023-10-13T11:01:12;18.90;76.70
81218;DHT22;70689;52.494;13.420;2023-10-13T11:04:00;18.90;76.80
81218;DHT22;70689;52.494;13.420;2023-10-13T11:06:54;18.90;77.00
81218;DHT22;70689;52.494;13.420;2023-10-13T11:09:28;19.00;77.20
81218;DHT22;70689;52.494;13.420;2023-10-13T11:12:13;19.00;77.50
81218;DHT22;70689;52.494;13.420;2023-10-13T11:14:41;19.00;77.20
81218;DHT22;70689;52.494;13.420;2023-10-13T11:17:06;19.10;76.90
81218;DHT22;70689;52.494;13.420;2023-10-13T11:19:49;19.10;76.90
81218;DHT22;70689;52.494;13.420;2023-10-13T11:22:16;19.10;76.80
81218;DHT22;70689;52.494;13.420;2023-10-13T11:25:02;19.10;76.70
81218;DHT22;70689;52.494;13.420;2023-10-13T11:27:41;19.30;76.40
81218;DHT22;70689;52.494;13.420;2023-10-13T11:30:21;19.30;76.20
81218;DHT22;70689;52.494;13.420;2023-10-13T11:33:04;19.30;76.10
81218;DHT22;70689;52.494;13.420;2023-10-13T11:35:35;19.40;75.70
81218;DHT22;70689;52.494;13.420;2023-10-13T11:41:04;19.50;75.00
81218;DHT22;70689;52.494;13.420;2023-10-13T11:46:24;19.50;74.80
81218;DHT22;70689;52.494;13.420;2023-10-13T11:49:05;19.50;74.70
81218;DHT22;70689;52.494;13.420;2023-10-13T11:51:49;19.50;74.80
81218;DHT22;70689;52.494;13.420;2023-10-13T11:54:18;19.50;75.10
81218;DHT22;70689;52.494;13.420;2023-10-13T11:56:47;19.60;74.60
81218;DHT22;70689;52.494;13.420;2023-10-13T11:59:13;19.70;73.70
81218;DHT22;70689;52.494;13.420;2023-10-13T12:01:50;19.80;73.50
81218;DHT22;70689;52.494;13.420;2023-10-13T12:04:35;19.80;73.60
81218;DHT22;70689;52.494;13.420;2023-10-13T12:07:22;19.80;73.50
81218;DHT22;70689;52.494;13.420;2023-10-13T12:10:07;19.90;72.90
81218;DHT22;70689;52.494;13.420;2023-10-13T12:12:40;20.00;72.90
81218;DHT22;70689;52.494;13.420;2023-10-13T12:15:08;20.10;72.40
81218;DHT22;70689;52.494;13.420;2023-10-13T12:17:35;20.30;71.10
81218;DHT22;70689;52.494;13.420;2023-10-13T12:20:02;20.20;71.60
81218;DHT22;70689;52.494;13.420;2023-10-13T12:22:30;20.30;71.20
81218;DHT22;70689;52.494;13.420;2023-10-13T12:25:08;20.40;71.80
81218;DHT22;70689;52.494;13.420;2023-10-13T12:27:53;20.30;70.60
81218;DHT22;70689;52.494;13.420;2023-10-13T12:30:23;20.40;70.60
81218;DHT22;70689;52.494;13.420;2023-10-13T12:33:04;20.40;70.40
81218;DHT22;70689;52.494;13.420;2023-10-13T12:35:41;20.50;70.20
81218;DHT22;70689;52.494;13.420;2023-10-13T12:38:24;20.60;69.60
81218;DHT22;70689;52.494;13.420;2023-10-13T12:41:05;20.60;70.00
81218;DHT22;70689;52.494;13.420;2023-10-13T12:43:49;20.70;69.30
81218;DHT22;70689;52.494;13.420;2023-10-13T12:46:33;20.80;69.00
81218;DHT22;70689;52.494;13.420;2023-10-13T12:49:17;20.80;68.70
81218;DHT22;70689;52.494;13.420;2023-10-13T12:52:03;20.90;68.00
81218;DHT22;70689;52.494;13.420;2023-10-13T12:54:29;21.00;67.70
81218;DHT22;70689;52.494;13.420;2023-10-13T12:57:01;21.00;67.50
81218;DHT22;70689;52.494;13.420;2023-10-13T12:59:28;21.00;67.60
81218;DHT22;70689;52.494;13.420;2023-10-13T13:01:54;20.90;67.90
81218;DHT22;70689;52.494;13.420;2023-10-13T13:04:19;20.90;68.40
81218;DHT22;70689;52.494;13.420;2023-10-13T13:06:51;21.10;67.80
81218;DHT22;70689;52.494;13.420;2023-10-13T13:09:19;21.20;67.00
81218;DHT22;70689;52.494;13.420;2023-10-13T13:11:52;21.30;66.80
81218;DHT22;70689;52.494;13.420;2023-10-13T13:14:25;21.40;66.30
81218;DHT22;70689;52.494;13.420;2023-10-13T13:16:55;21.50;65.90
81218;DHT22;70689;52.494;13.420;2023-10-13T13:19:33;21.50;65.60
81218;DHT22;70689;52.494;13.420;2023-10-13T13:22:02;21.60;65.30
81218;DHT22;70689;52.494;13.420;2023-10-13T13:24:35;21.60;65.40
81218;DHT22;70689;52.494;13.420;2023-10-13T13:27:00;21.70;65.00
81218;DHT22;70689;52.494;13.420;2023-10-13T13:29:29;21.60;64.80
81218;DHT22;70689;52.494;13.420;2023-10-13T13:31:56;21.70;65.20
81218;DHT22;70689;52.494;13.420;2023-10-13T13:34:22;21.80;64.40
81218;DHT22;70689;52.494;13.420;2023-10-13T13:36:50;21.80;64.30
81218;DHT22;70689;52.494;13.420;2023-10-13T13:39:21;21.80;64.00
81218;DHT22;70689;52.494;13.420;2023-10-13T13:41:55;21.70;64.30
81218;DHT22;70689;52.494;13.420;2023-10-13T13:44:24;21.80;64.00
81218;DHT22;70689;52.494;13.420;2023-10-13T13:47:01;21.70;64.00
81218;DHT22;70689;52.494;13.420;2023-10-13T13:49:30;21.70;64.00
81218;DHT22;70689;52.494;13.420;2023-10-13T13:52:08;21.80;63.60
81218;DHT22;70689;52.494;13.420;2023-10-13T13:54:35;21.80;63.30
81218;DHT22;70689;52.494;13.420;2023-10-13T13:57:01;21.80;63.00
81218;DHT22;70689;52.494;13.420;2023-10-13T13:59:26;21.90;63.00
81218;DHT22;70689;52.494;13.420;2023-10-13T14:02:00;22.00;62.60
81218;DHT22;70689;52.494;13.420;2023-10-13T14:04:26;22.10;62.30
81218;DHT22;70689;52.494;13.420;2023-10-13T14:06:56;22.20;62.10
81218;DHT22;70689;52.494;13.420;2023-10-13T14:09:22;22.20;61.80
81218;DHT22;70689;52.494;13.420;2023-10-13T14:12:08;22.40;61.30
81218;DHT22;70689;52.494;13.420;2023-10-13T14:14:56;22.50;60.10
81218;DHT22;70689;52.494;13.420;2023-10-13T14:17:22;22.60;60.20
81218;DHT22;70689;52.494;13.420;2023-10-13T14:20:08;22.60;59.90
81218;DHT22;70689;52.494;13.420;2023-10-13T14:22:40;22.50;60.00
81218;DHT22;70689;52.494;13.420;2023-10-13T14:25:07;22.50;60.20
81218;DHT22;70689;52.494;13.420;2023-10-13T14:27:35;22.40;60.10
81218;DHT22;70689;52.494;13.420;2023-10-13T14:30:02;22.30;59.80
81218;DHT22;70689;52.494;13.420;2023-10-13T14:32:28;22.30;60.00
81218;DHT22;70689;52.494;13.420;2023-10-13T14:34:54;22.40;58.80
81218;DHT22;70689;52.494;13.420;2023-10-13T14:37:21;22.40;59.00
81218;DHT22;70689;52.494;13.420;2023-10-13T14:39:56;22.50;59.00
81218;DHT22;70689;52.494;13.420;2023-10-13T14:42:26;22.50;58.40
81218;DHT22;70689;52.494;13.420;2023-10-13T14:44:52;22.50;58.30
81218;DHT22;70689;52.494;13.420;2023-10-13T14:47:23;22.50;58.30
81218;DHT22;70689;52.494;13.420;2023-10-13T14:49:54;22.50;58.50
81218;DHT22;70689;52.494;13.420;2023-10-13T14:52:29;22.60;57.70
81218;DHT22;70689;52.494;13.420;2023-10-13T14:55:00;22.60;58.00
81218;DHT22;70689;52.494;13.420;2023-10-13T14:57:26;22.40;58.30
81218;DHT22;70689;52.494;13.420;2023-10-13T14:59:53;22.30;58.30
81218;DHT22;70689;52.494;13.420;2023-10-13T15:02:19;22.40;58.30
81218;DHT22;70689;52.494;13.420;2023-10-13T15:04:46;22.40;58.10
81218;DHT22;70689;52.494;13.420;2023-10-13T15:07:14;22.50;58.00
81218;DHT22;70689;52.494;13.420;2023-10-13T15:09:40;22.50;57.80
81218;DHT22;70689;52.494;13.420;2023-10-13T15:12:08;22.50;57.20
81218;DHT22;70689;52.494;13.420;2023-10-13T15:14:37;22.50;57.30
81218;DHT22;70689;52.494;13.420;2023-10-13T15:17:02;22.40;57.70
81218;DHT22;70689;52.494;13.420;2023-10-13T15:19:31;22.40;57.50
81218;DHT22;70689;52.494;13.420;2023-10-13T15:22:02;22.40;57.60
81218;DHT22;70689;52.494;13.420;2023-10-13T15:24:28;22.40;57.80
81218;DHT22;70689;52.494;13.420;2023-10-13T15:26:54;22.30;58.00
81218;DHT22;70689;52.494;13.420;2023-10-13T15:29:27;22.20;58.30
81218;DHT22;70689;52.494;13.420;2023-10-13T15:32:01;22.30;58.10
81218;DHT22;70689;52.494;13.420;2023-10-13T15:34:27;22.40;57.50
81218;DHT22;70689;52.494;13.420;2023-10-13T15:36:57;22.30;57.60
81218;DHT22;70689;52.494;13.420;2023-10-13T15:39:23;22.30;57.80
81218;DHT22;70689;52.494;13.420;2023-10-13T15:41:52;22.30;57.70
81218;DHT22;70689;52.494;13.420;2023-10-13T15:44:21;22.30;57.80
81218;DHT22;70689;52.494;13.420;2023-10-13T15:46:53;22.30;57.60
81218;DHT22;70689;52.494;13.420;2023-10-13T15:49:18;22.30;57.70
81218;DHT22;70689;52.494;13.420;2023-10-13T15:51:44;22.30;57.70
81218;DHT22;70689;52.494;13.420;2023-10-13T15:54:10;22.30;57.50
81218;DHT22;70689;52.494;13.420;2023-10-13T15:56:43;22.20;57.40
81218;DHT22;70689;52.494;13.420;2023-10-13T15:59:09;22.20;58.20
81218;DHT22;70689;52.494;13.420;2023-10-13T16:01:35;22.10;59.50
81218;DHT22;70689;52.494;13.420;2023-10-13T16:04:01;22.10;58.20
81218;DHT22;70689;52.494;13.420;2023-10-13T16:06:40;22.20;57.80
81218;DHT22;70689;52.494;13.420;2023-10-13T16:09:06;22.10;58.00
81218;DHT22;70689;52.494;13.420;2023-10-13T16:11:40;22.10;57.50
81218;DHT22;70689;52.494;13.420;2023-10-13T16:14:08;22.10;57.50
81218;DHT22;70689;52.494;13.420;2023-10-13T16:16:41;22.20;57.10
81218;DHT22;70689;52.494;13.420;2023-10-13T16:19:15;22.00;57.70